sensor_id;sensor_type;location;lat;lon;timestamp;P1;durP1;ratioP1;P2;durP2;ratioP2
53271;SDS011;39160;48.580;7.756;2024-01-30T00:04:30;23.70;;;12.85;;
53271;SDS011;39160;48.580;7.756;2024-01-30T00:09:21;22.10;;;12.95;;
53271;SDS011;39160;48.580;7.756;2024-01-30T00:14:12;22.60;;;12.85;;
53271;SDS011;39160;48.580;7.756;2024-01-30T00:19:02;19.55;;;12.23;;
53271;SDS011;39160;48.580;7.756;2024-01-30T00:23:53;17.73;;;9.50;;
53271;SDS011;39160;48.580;7.756;2024-01-30T00:28:44;16.75;;;9.27;;
53271;SDS011;39160;48.580;7.756;2024-01-30T00:33:34;19.00;;;9.85;;
53271;SDS011;39160;48.580;7.756;2024-01-30T00:38:25;13.90;;;8.88;;
53271;SDS011;39160;48.580;7.756;2024-01-30T00:43:16;15.05;;;8.95;;
53271;SDS011;39160;48.580;7.756;2024-01-30T00:48:06;13.93;;;9.32;;
53271;SDS011;39160;48.580;7.756;2024-01-30T00:52:57;15.40;;;8.25;;
53271;SDS011;39160;48.580;7.756;2024-01-30T00:57:48;15.93;;;9.13;;
53271;SDS011;39160;48.580;7.756;2024-01-30T01:02:39;15.13;;;7.97;;
53271;SDS011;39160;48.580;7.756;2024-01-30T01:07:29;13.75;;;8.95;;
53271;SDS011;39160;48.580;7.756;2024-01-30T01:12:20;13.75;;;8.60;;
53271;SDS011;39160;48.580;7.756;2024-01-30T01:17:11;15.30;;;8.23;;
53271;SDS011;39160;48.580;7.756;2024-01-30T01:22:02;14.23;;;8.02;;
53271;SDS011;39160;48.580;7.756;2024-01-30T01:26:53;13.80;;;8.18;;
53271;SDS011;39160;48.580;7.756;2024-01-30T01:31:43;15.77;;;9.85;;
53271;SDS011;39160;48.580;7.756;2024-01-30T01:36:34;15.07;;;8.35;;
53271;SDS011;39160;48.580;7.756;2024-01-30T01:41:25;15.50;;;9.07;;
53271;SDS011;39160;48.580;7.756;2024-01-30T01:46:23;13.65;;;8.07;;
53271;SDS011;39160;48.580;7.756;2024-01-30T01:51:16;15.35;;;8.80;;
53271;SDS011;39160;48.580;7.756;2024-01-30T01:56:07;16.98;;;8.95;;
53271;SDS011;39160;48.580;7.756;2024-01-30T02:00:58;18.27;;;9.82;;
53271;SDS011;39160;48.580;7.756;2024-01-30T02:05:50;13.98;;;7.95;;
53271;SDS011;39160;48.580;7.756;2024-01-30T02:10:41;13.93;;;8.55;;
53271;SDS011;39160;48.580;7.756;2024-01-30T02:15:32;14.52;;;9.82;;
53271;SDS011;39160;48.580;7.756;2024-01-30T02:20:23;15.07;;;9.00;;
53271;SDS011;39160;48.580;7.756;2024-01-30T02:25:15;14.80;;;8.25;;
53271;SDS011;39160;48.580;7.756;2024-01-30T02:30:06;12.13;;;7.65;;
53271;SDS011;39160;48.580;7.756;2024-01-30T02:34:57;14.98;;;8.60;;
53271;SDS011;39160;48.580;7.756;2024-01-30T02:39:47;14.60;;;8.77;;
53271;SDS011;39160;48.580;7.756;2024-01-30T02:44:38;14.25;;;7.75;;
53271;SDS011;39160;48.580;7.756;2024-01-30T02:49:29;12.40;;;7.93;;
53271;SDS011;39160;48.580;7.756;2024-01-30T02:54:19;14.00;;;7.60;;
53271;SDS011;39160;48.580;7.756;2024-01-30T02:59:10;17.33;;;7.75;;
53271;SDS011;39160;48.580;7.756;2024-01-30T03:04:01;11.50;;;7.30;;
53271;SDS011;39160;48.580;7.756;2024-01-30T03:08:51;11.93;;;6.97;;
53271;SDS011;39160;48.580;7.756;2024-01-30T03:13:42;11.40;;;6.93;;
53271;SDS011;39160;48.580;7.756;2024-01-30T03:18:33;9.60;;;6.63;;
53271;SDS011;39160;48.580;7.756;2024-01-30T03:23:23;12.93;;;7.63;;
53271;SDS011;39160;48.580;7.756;2024-01-30T03:28:14;12.93;;;6.97;;
53271;SDS011;39160;48.580;7.756;2024-01-30T03:33:05;15.23;;;8.40;;
53271;SDS011;39160;48.580;7.756;2024-01-30T03:37:55;11.70;;;7.93;;
53271;SDS011;39160;48.580;7.756;2024-01-30T03:42:46;12.98;;;7.80;;
53271;SDS011;39160;48.580;7.756;2024-01-30T03:47:36;13.38;;;8.02;;
53271;SDS011;39160;48.580;7.756;2024-01-30T03:52:27;13.98;;;9.13;;
53271;SDS011;39160;48.580;7.756;2024-01-30T03:57:17;11.77;;;7.82;;
53271;SDS011;39160;48.580;7.756;2024-01-30T04:02:09;10.70;;;7.63;;
53271;SDS011;39160;48.580;7.756;2024-01-30T04:07:01;13.65;;;7.28;;
53271;SDS011;39160;48.580;7.756;2024-01-30T04:11:52;12.20;;;8.32;;
53271;SDS011;39160;48.580;7.756;2024-01-30T04:16:42;20.35;;;8.55;;
53271;SDS011;39160;48.580;7.756;2024-01-30T04:21:33;14.88;;;8.57;;
53271;SDS011;39160;48.580;7.756;2024-01-30T04:26:24;13.35;;;7.75;;
53271;SDS011;39160;48.580;7.756;2024-01-30T04:31:14;13.57;;;7.32;;
53271;SDS011;39160;48.580;7.756;2024-01-30T04:36:07;9.15;;;6.30;;
53271;SDS011;39160;48.580;7.756;2024-01-30T04:41:01;13.88;;;6.45;;
53271;SDS011;39160;48.580;7.756;2024-01-30T04:45:52;12.88;;;6.45;;
53271;SDS011;39160;48.580;7.756;2024-01-30T04:50:42;12.88;;;7.25;;
53271;SDS011;39160;48.580;7.756;2024-01-30T04:55:34;10.15;;;6.05;;
53271;SDS011;39160;48.580;7.756;2024-01-30T05:00:25;9.52;;;5.60;;
53271;SDS011;39160;48.580;7.756;2024-01-30T05:05:16;9.55;;;5.82;;
53271;SDS011;39160;48.580;7.756;2024-01-30T05:10:07;12.85;;;6.45;;
53271;SDS011;39160;48.580;7.756;2024-01-30T05:14:58;10.02;;;5.18;;
53271;SDS011;39160;48.580;7.756;2024-01-30T05:19:49;8.32;;;5.38;;
53271;SDS011;39160;48.580;7.756;2024-01-30T05:24:39;11.25;;;6.40;;
53271;SDS011;39160;48.580;7.756;2024-01-30T05:29:30;10.55;;;6.28;;
53271;SDS011;39160;48.580;7.756;2024-01-30T05:34:20;9.93;;;6.20;;
53271;SDS011;39160;48.580;7.756;2024-01-30T05:39:11;8.68;;;5.60;;
53271;SDS011;39160;48.580;7.756;2024-01-30T05:44:01;11.50;;;5.68;;
53271;SDS011;39160;48.580;7.756;2024-01-30T05:48:52;10.82;;;6.07;;
53271;SDS011;39160;48.580;7.756;2024-01-30T05:53:43;12.20;;;5.00;;
53271;SDS011;39160;48.580;7.756;2024-01-30T05:58:33;9.93;;;5.90;;
53271;SDS011;39160;48.580;7.756;2024-01-30T06:03:24;9.88;;;5.80;;
53271;SDS011;39160;48.580;7.756;2024-01-30T06:08:15;9.25;;;4.90;;
53271;SDS011;39160;48.580;7.756;2024-01-30T06:13:06;9.07;;;5.97;;
53271;SDS011;39160;48.580;7.756;2024-01-30T06:17:56;6.30;;;5.05;;
53271;SDS011;39160;48.580;7.756;2024-01-30T06:22:47;8.73;;;5.45;;
53271;SDS011;39160;48.580;7.756;2024-01-30T06:27:38;9.60;;;5.50;;
53271;SDS011;39160;48.580;7.756;2024-01-30T06:32:28;8.73;;;6.90;;
53271;SDS011;39160;48.580;7.756;2024-01-30T06:37:24;8.68;;;5.82;;
53271;SDS011;39160;48.580;7.756;2024-01-30T06:42:14;9.57;;;5.45;;
53271;SDS011;39160;48.580;7.756;2024-01-30T06:47:06;12.18;;;6.88;;
53271;SDS011;39160;48.580;7.756;2024-01-30T06:51:56;11.48;;;6.93;;
53271;SDS011;39160;48.580;7.756;2024-01-30T06:56:47;17.00;;;7.55;;
53271;SDS011;39160;48.580;7.756;2024-01-30T07:01:37;15.00;;;7.90;;
53271;SDS011;39160;48.580;7.756;2024-01-30T07:06:28;14.18;;;7.55;;
53271;SDS011;39160;48.580;7.756;2024-01-30T07:11:19;10.90;;;6.63;;
53271;SDS011;39160;48.580;7.756;2024-01-30T07:16:12;12.60;;;5.93;;
53271;SDS011;39160;48.580;7.756;2024-01-30T07:21:03;11.45;;;7.85;;
53271;SDS011;39160;48.580;7.756;2024-01-30T07:25:54;12.40;;;6.25;;
53271;SDS011;39160;48.580;7.756;2024-01-30T07:30:44;12.30;;;7.00;;
53271;SDS011;39160;48.580;7.756;2024-01-30T07:35:35;12.55;;;7.10;;
53271;SDS011;39160;48.580;7.756;2024-01-30T07:40:26;10.05;;;6.43;;
53271;SDS011;39160;48.580;7.756;2024-01-30T07:45:17;11.80;;;7.03;;
53271;SDS011;39160;48.580;7.756;2024-01-30T07:50:12;11.73;;;6.93;;
53271;SDS011;39160;48.580;7.756;2024-01-30T07:55:02;12.18;;;7.18;;
53271;SDS011;39160;48.580;7.756;2024-01-30T07:59:54;13.00;;;8.07;;
53271;SDS011;39160;48.580;7.756;2024-01-30T08:04:44;13.38;;;7.25;;
53271;SDS011;39160;48.580;7.756;2024-01-30T08:09:38;15.45;;;8.18;;
53271;SDS011;39160;48.580;7.756;2024-01-30T08:14:29;11.25;;;7.28;;
53271;SDS011;39160;48.580;7.756;2024-01-30T08:19:19;12.65;;;7.65;;
53271;SDS011;39160;48.580;7.756;2024-01-30T08:24:10;13.85;;;6.93;;
53271;SDS011;39160;48.580;7.756;2024-01-30T08:29:01;13.75;;;7.95;;
53271;SDS011;39160;48.580;7.756;2024-01-30T08:33:52;13.23;;;7.85;;
53271;SDS011;39160;48.580;7.756;2024-01-30T08:38:46;16.48;;;8.05;;
53271;SDS011;39160;48.580;7.756;2024-01-30T08:43:37;15.98;;;8.18;;
53271;SDS011;39160;48.580;7.756;2024-01-30T08:48:27;17.42;;;8.88;;
53271;SDS011;39160;48.580;7.756;2024-01-30T08:53:18;14.73;;;8.82;;
53271;SDS011;39160;48.580;7.756;2024-01-30T08:58:09;15.73;;;9.02;;
53271;SDS011;39160;48.580;7.756;2024-01-30T09:02:59;17.63;;;9.15;;
53271;SDS011;39160;48.580;7.756;2024-01-30T09:07:50;15.38;;;7.97;;
53271;SDS011;39160;48.580;7.756;2024-01-30T09:12:41;14.73;;;7.75;;
53271;SDS011;39160;48.580;7.756;2024-01-30T09:17:31;13.57;;;8.15;;
53271;SDS011;39160;48.580;7.756;2024-01-30T09:22:23;12.02;;;7.20;;
53271;SDS011;39160;48.580;7.756;2024-01-30T09:27:13;15.05;;;7.75;;
53271;SDS011;39160;48.580;7.756;2024-01-30T09:32:04;17.48;;;7.90;;
53271;SDS011;39160;48.580;7.756;2024-01-30T09:36:56;9.65;;;6.68;;
53271;SDS011;39160;48.580;7.756;2024-01-30T09:42:05;14.65;;;7.70;;
53271;SDS011;39160;48.580;7.756;2024-01-30T09:47:00;11.02;;;7.22;;
53271;SDS011;39160;48.580;7.756;2024-01-30T09:51:53;11.07;;;6.95;;
53271;SDS011;39160;48.580;7.756;2024-01-30T09:56:47;11.98;;;6.65;;
53271;SDS011;39160;48.580;7.756;2024-01-30T10:01:38;12.80;;;6.63;;
53271;SDS011;39160;48.580;7.756;2024-01-30T10:06:30;12.13;;;6.93;;
53271;SDS011;39160;48.580;7.756;2024-01-30T10:11:20;12.70;;;6.63;;
53271;SDS011;39160;48.580;7.756;2024-01-30T10:16:13;14.60;;;7.55;;
53271;SDS011;39160;48.580;7.756;2024-01-30T10:21:07;12.13;;;6.60;;
53271;SDS011;39160;48.580;7.756;2024-01-30T10:25:58;13.82;;;6.93;;
53271;SDS011;39160;48.580;7.756;2024-01-30T10:30:57;10.60;;;5.90;;
53271;SDS011;39160;48.580;7.756;2024-01-30T10:35:49;10.98;;;6.03;;
53271;SDS011;39160;48.580;7.756;2024-01-30T10:40:41;9.57;;;6.25;;
53271;SDS011;39160;48.580;7.756;2024-01-30T10:45:34;9.38;;;5.75;;
53271;SDS011;39160;48.580;7.756;2024-01-30T10:50:28;10.57;;;7.05;;
53271;SDS011;39160;48.580;7.756;2024-01-30T10:55:20;12.07;;;6.07;;
53271;SDS011;39160;48.580;7.756;2024-01-30T11:00:13;11.95;;;6.05;;
53271;SDS011;39160;48.580;7.756;2024-01-30T11:05:05;11.48;;;6.68;;
53271;SDS011;39160;48.580;7.756;2024-01-30T11:10:00;9.77;;;5.78;;
53271;SDS011;39160;48.580;7.756;2024-01-30T11:15:04;9.73;;;6.03;;
53271;SDS011;39160;48.580;7.756;2024-01-30T11:19:58;13.63;;;6.45;;
53271;SDS011;39160;48.580;7.756;2024-01-30T11:24:49;11.02;;;5.68;;
53271;SDS011;39160;48.580;7.756;2024-01-30T11:29:40;11.75;;;6.45;;
53271;SDS011;39160;48.580;7.756;2024-01-30T11:34:32;9.05;;;6.40;;
53271;SDS011;39160;48.580;7.756;2024-01-30T11:39:25;10.43;;;5.57;;
53271;SDS011;39160;48.580;7.756;2024-01-30T11:44:19;10.57;;;6.32;;
53271;SDS011;39160;48.580;7.756;2024-01-30T11:49:13;8.90;;;5.90;;
53271;SDS011;39160;48.580;7.756;2024-01-30T11:54:04;11.25;;;6.22;;
53271;SDS011;39160;48.580;7.756;2024-01-30T11:58:55;10.55;;;6.15;;
53271;SDS011;39160;48.580;7.756;2024-01-30T12:03:49;10.32;;;4.88;;
53271;SDS011;39160;48.580;7.756;2024-01-30T12:08:40;11.90;;;5.38;;
53271;SDS011;39160;48.580;7.756;2024-01-30T12:13:31;8.88;;;4.93;;
53271;SDS011;39160;48.580;7.756;2024-01-30T12:18:22;7.40;;;5.53;;
53271;SDS011;39160;48.580;7.756;2024-01-30T12:23:13;7.78;;;4.45;;
53271;SDS011;39160;48.580;7.756;2024-01-30T12:28:03;9.20;;;4.82;;
53271;SDS011;39160;48.580;7.756;2024-01-30T12:32:54;8.70;;;4.75;;
53271;SDS011;39160;48.580;7.756;2024-01-30T12:37:45;8.70;;;5.10;;
53271;SDS011;39160;48.580;7.756;2024-01-30T12:42:37;9.98;;;5.18;;
53271;SDS011;39160;48.580;7.756;2024-01-30T12:47:28;11.23;;;5.22;;
53271;SDS011;39160;48.580;7.756;2024-01-30T12:52:19;9.25;;;5.40;;
53271;SDS011;39160;48.580;7.756;2024-01-30T12:57:11;9.40;;;5.40;;
53271;SDS011;39160;48.580;7.756;2024-01-30T13:02:02;8.98;;;5.32;;
53271;SDS011;39160;48.580;7.756;2024-01-30T13:06:53;7.70;;;4.07;;
53271;SDS011;39160;48.580;7.756;2024-01-30T13:11:44;9.70;;;6.13;;
53271;SDS011;39160;48.580;7.756;2024-01-30T13:16:34;7.50;;;4.47;;
53271;SDS011;39160;48.580;7.756;2024-01-30T13:21:25;8.43;;;4.43;;
53271;SDS011;39160;48.580;7.756;2024-01-30T13:26:16;9.23;;;4.78;;
53271;SDS011;39160;48.580;7.756;2024-01-30T13:31:06;9.90;;;5.05;;
53271;SDS011;39160;48.580;7.756;2024-01-30T13:35:57;8.15;;;4.47;;
53271;SDS011;39160;48.580;7.756;2024-01-30T13:40:48;8.00;;;4.85;;
53271;SDS011;39160;48.580;7.756;2024-01-30T13:45:39;8.07;;;4.35;;
53271;SDS011;39160;48.580;7.756;2024-01-30T13:50:31;13.52;;;5.38;;
53271;SDS011;39160;48.580;7.756;2024-01-30T13:55:23;8.48;;;5.43;;
53271;SDS011;39160;48.580;7.756;2024-01-30T14:00:13;8.13;;;4.20;;
53271;SDS011;39160;48.580;7.756;2024-01-30T14:05:06;8.63;;;4.78;;
53271;SDS011;39160;48.580;7.756;2024-01-30T14:09:57;7.75;;;4.03;;
53271;SDS011;39160;48.580;7.756;2024-01-30T14:14:47;8.40;;;4.93;;
53271;SDS011;39160;48.580;7.756;2024-01-30T14:19:38;7.85;;;4.93;;
53271;SDS011;39160;48.580;7.756;2024-01-30T14:24:28;9.07;;;4.63;;
53271;SDS011;39160;48.580;7.756;2024-01-30T14:29:19;8.95;;;4.90;;
53271;SDS011;39160;48.580;7.756;2024-01-30T14:34:10;11.48;;;4.47;;
53271;SDS011;39160;48.580;7.756;2024-01-30T14:39:00;7.55;;;4.57;;
53271;SDS011;39160;48.580;7.756;2024-01-30T14:43:53;9.23;;;4.30;;
53271;SDS011;39160;48.580;7.756;2024-01-30T14:48:47;9.63;;;4.22;;
53271;SDS011;39160;48.580;7.756;2024-01-30T14:53:37;6.50;;;3.85;;
53271;SDS011;39160;48.580;7.756;2024-01-30T14:58:28;7.80;;;4.22;;
53271;SDS011;39160;48.580;7.756;2024-01-30T15:03:19;7.88;;;5.13;;
53271;SDS011;39160;48.580;7.756;2024-01-30T15:08:09;7.18;;;4.35;;
53271;SDS011;39160;48.580;7.756;2024-01-30T15:13:00;8.52;;;4.22;;
53271;SDS011;39160;48.580;7.756;2024-01-30T15:17:51;9.35;;;4.30;;
53271;SDS011;39160;48.580;7.756;2024-01-30T15:22:41;7.47;;;4.50;;
53271;SDS011;39160;48.580;7.756;2024-01-30T15:27:32;13.32;;;5.82;;
53271;SDS011;39160;48.580;7.756;2024-01-30T15:32:26;12.00;;;5.78;;
53271;SDS011;39160;48.580;7.756;2024-01-30T15:37:17;12.32;;;5.78;;
53271;SDS011;39160;48.580;7.756;2024-01-30T15:42:07;9.07;;;5.68;;
53271;SDS011;39160;48.580;7.756;2024-01-30T15:46:58;13.52;;;5.80;;
53271;SDS011;39160;48.580;7.756;2024-01-30T15:51:49;10.80;;;7.22;;
53271;SDS011;39160;48.580;7.756;2024-01-30T15:56:40;13.27;;;6.15;;
53271;SDS011;39160;48.580;7.756;2024-01-30T16:01:30;11.20;;;6.20;;
53271;SDS011;39160;48.580;7.756;2024-01-30T16:06:21;12.45;;;6.22;;
53271;SDS011;39160;48.580;7.756;2024-01-30T16:11:12;12.48;;;6.38;;
53271;SDS011;39160;48.580;7.756;2024-01-30T16:16:07;11.15;;;5.82;;
53271;SDS011;39160;48.580;7.756;2024-01-30T16:20:59;9.73;;;5.30;;
53271;SDS011;39160;48.580;7.756;2024-01-30T16:25:50;9.23;;;4.85;;
53271;SDS011;39160;48.580;7.756;2024-01-30T16:30:41;13.35;;;5.07;;
53271;SDS011;39160;48.580;7.756;2024-01-30T16:35:31;7.47;;;4.53;;
53271;SDS011;39160;48.580;7.756;2024-01-30T16:40:22;5.88;;;4.20;;
53271;SDS011;39160;48.580;7.756;2024-01-30T16:45:13;9.60;;;5.63;;
53271;SDS011;39160;48.580;7.756;2024-01-30T16:50:03;6.97;;;4.68;;
53271;SDS011;39160;48.580;7.756;2024-01-30T16:54:54;7.43;;;4.93;;
53271;SDS011;39160;48.580;7.756;2024-01-30T16:59:45;8.50;;;4.72;;
53271;SDS011;39160;48.580;7.756;2024-01-30T17:04:36;8.75;;;4.60;;
53271;SDS011;39160;48.580;7.756;2024-01-30T17:09:30;7.43;;;4.30;;
53271;SDS011;39160;48.580;7.756;2024-01-30T17:14:22;8.10;;;4.28;;
53271;SDS011;39160;48.580;7.756;2024-01-30T17:19:13;7.60;;;4.13;;
53271;SDS011;39160;48.580;7.756;2024-01-30T17:24:05;9.93;;;4.53;;
53271;SDS011;39160;48.580;7.756;2024-01-30T17:28:57;8.30;;;4.68;;
53271;SDS011;39160;48.580;7.756;2024-01-30T17:33:47;7.53;;;4.97;;
53271;SDS011;39160;48.580;7.756;2024-01-30T17:38:38;9.60;;;6.15;;
53271;SDS011;39160;48.580;7.756;2024-01-30T17:43:29;9.07;;;4.80;;
53271;SDS011;39160;48.580;7.756;2024-01-30T17:48:19;6.93;;;4.70;;
53271;SDS011;39160;48.580;7.756;2024-01-30T17:53:10;7.65;;;5.03;;
53271;SDS011;39160;48.580;7.756;2024-01-30T17:58:01;7.57;;;5.50;;
53271;SDS011;39160;48.580;7.756;2024-01-30T18:02:53;8.45;;;5.15;;
53271;SDS011;39160;48.580;7.756;2024-01-30T18:07:45;6.47;;;4.55;;
53271;SDS011;39160;48.580;7.756;2024-01-30T18:12:36;8.20;;;4.18;;
53271;SDS011;39160;48.580;7.756;2024-01-30T18:17:26;8.85;;;4.88;;
53271;SDS011;39160;48.580;7.756;2024-01-30T18:22:17;6.95;;;4.72;;
53271;SDS011;39160;48.580;7.756;2024-01-30T18:27:08;9.18;;;5.10;;
53271;SDS011;39160;48.580;7.756;2024-01-30T18:32:02;9.00;;;4.93;;
53271;SDS011;39160;48.580;7.756;2024-01-30T18:36:53;5.90;;;3.97;;
53271;SDS011;39160;48.580;7.756;2024-01-30T18:41:47;8.38;;;4.35;;
53271;SDS011;39160;48.580;7.756;2024-01-30T18:46:38;7.72;;;5.20;;
53271;SDS011;39160;48.580;7.756;2024-01-30T18:51:29;7.07;;;4.75;;
53271;SDS011;39160;48.580;7.756;2024-01-30T18:56:20;7.75;;;5.60;;
53271;SDS011;39160;48.580;7.756;2024-01-30T19:01:11;7.97;;;5.03;;
53271;SDS011;39160;48.580;7.756;2024-01-30T19:06:01;10.13;;;4.90;;
53271;SDS011;39160;48.580;7.756;2024-01-30T19:10:52;10.50;;;4.97;;
53271;SDS011;39160;48.580;7.756;2024-01-30T19:15:43;11.25;;;6.10;;
53271;SDS011;39160;48.580;7.756;2024-01-30T19:20:34;7.85;;;5.20;;
53271;SDS011;39160;48.580;7.756;2024-01-30T19:25:25;9.80;;;5.53;;
53271;SDS011;39160;48.580;7.756;2024-01-30T19:30:16;6.35;;;4.95;;
53271;SDS011;39160;48.580;7.756;2024-01-30T19:35:08;10.43;;;5.15;;
53271;SDS011;39160;48.580;7.756;2024-01-30T19:39:59;9.23;;;5.78;;
53271;SDS011;39160;48.580;7.756;2024-01-30T19:44:49;10.27;;;5.03;;
53271;SDS011;39160;48.580;7.756;2024-01-30T19:49:40;10.07;;;4.82;;
53271;SDS011;39160;48.580;7.756;2024-01-30T19:54:31;9.77;;;4.93;;
53271;SDS011;39160;48.580;7.756;2024-01-30T19:59:22;11.55;;;5.00;;
53271;SDS011;39160;48.580;7.756;2024-01-30T20:04:13;13.35;;;6.43;;
53271;SDS011;39160;48.580;7.756;2024-01-30T20:09:04;13.90;;;6.65;;
53271;SDS011;39160;48.580;7.756;2024-01-30T20:13:56;10.75;;;6.82;;
53271;SDS011;39160;48.580;7.756;2024-01-30T20:18:47;11.75;;;6.93;;
53271;SDS011;39160;48.580;7.756;2024-01-30T20:23:37;17.08;;;9.02;;
53271;SDS011;39160;48.580;7.756;2024-01-30T20:28:28;13.38;;;8.93;;
53271;SDS011;39160;48.580;7.756;2024-01-30T20:33:19;15.73;;;8.95;;
53271;SDS011;39160;48.580;7.756;2024-01-30T20:38:10;14.30;;;8.52;;
53271;SDS011;39160;48.580;7.756;2024-01-30T20:43:00;14.98;;;8.13;;
53271;SDS011;39160;48.580;7.756;2024-01-30T20:47:51;13.45;;;8.55;;
53271;SDS011;39160;48.580;7.756;2024-01-30T20:52:42;14.07;;;8.07;;
53271;SDS011;39160;48.580;7.756;2024-01-30T20:57:32;15.45;;;8.38;;
53271;SDS011;39160;48.580;7.756;2024-01-30T21:02:23;17.55;;;8.77;;
53271;SDS011;39160;48.580;7.756;2024-01-30T21:07:14;17.65;;;8.90;;
53271;SDS011;39160;48.580;7.756;2024-01-30T21:12:05;14.95;;;9.40;;
53271;SDS011;39160;48.580;7.756;2024-01-30T21:16:56;19.30;;;10.48;;
53271;SDS011;39160;48.580;7.756;2024-01-30T21:21:50;20.70;;;10.73;;
53271;SDS011;39160;48.580;7.756;2024-01-30T21:26:41;17.00;;;10.27;;
53271;SDS011;39160;48.580;7.756;2024-01-30T21:31:31;14.45;;;8.57;;
53271;SDS011;39160;48.580;7.756;2024-01-30T21:36:22;19.02;;;9.63;;
53271;SDS011;39160;48.580;7.756;2024-01-30T21:41:13;16.88;;;9.38;;
53271;SDS011;39160;48.580;7.756;2024-01-30T21:46:06;15.52;;;8.95;;
53271;SDS011;39160;48.580;7.756;2024-01-30T21:50:58;14.15;;;8.95;;
53271;SDS011;39160;48.580;7.756;2024-01-30T21:55:48;16.58;;;8.82;;
53271;SDS011;39160;48.580;7.756;2024-01-30T22:00:39;14.10;;;7.50;;
53271;SDS011;39160;48.580;7.756;2024-01-30T22:05:29;11.30;;;6.25;;
53271;SDS011;39160;48.580;7.756;2024-01-30T22:10:21;12.57;;;6.88;;
53271;SDS011;39160;48.580;7.756;2024-01-30T22:15:11;11.77;;;6.40;;
53271;SDS011;39160;48.580;7.756;2024-01-30T22:20:02;13.75;;;6.70;;
53271;SDS011;39160;48.580;7.756;2024-01-30T22:24:54;13.32;;;7.13;;
53271;SDS011;39160;48.580;7.756;2024-01-30T22:29:45;10.15;;;5.85;;
53271;SDS011;39160;48.580;7.756;2024-01-30T22:34:35;11.30;;;7.30;;
53271;SDS011;39160;48.580;7.756;2024-01-30T22:39:27;10.60;;;6.57;;
53271;SDS011;39160;48.580;7.756;2024-01-30T22:44:18;11.57;;;6.47;;
53271;SDS011;39160;48.580;7.756;2024-01-30T22:49:09;13.73;;;6.93;;
53271;SDS011;39160;48.580;7.756;2024-01-30T22:53:59;12.40;;;7.25;;
53271;SDS011;39160;48.580;7.756;2024-01-30T22:58:50;13.38;;;7.85;;
53271;SDS011;39160;48.580;7.756;2024-01-30T23:03:41;13.95;;;7.47;;
53271;SDS011;39160;48.580;7.756;2024-01-30T23:08:31;15.27;;;7.85;;
53271;SDS011;39160;48.580;7.756;2024-01-30T23:13:22;14.43;;;8.60;;
53271;SDS011;39160;48.580;7.756;2024-01-30T23:18:13;12.70;;;7.88;;
53271;SDS011;39160;48.580;7.756;2024-01-30T23:23:04;12.95;;;7.72;;
53271;SDS011;39160;48.580;7.756;2024-01-30T23:27:57;14.40;;;8.15;;
53271;SDS011;39160;48.580;7.756;2024-01-30T23:32:48;13.27;;;8.73;;
53271;SDS011;39160;48.580;7.756;2024-01-30T23:37:39;12.10;;;7.10;;
53271;SDS011;39160;48.580;7.756;2024-01-30T23:42:30;13.85;;;7.60;;
53271;SDS011;39160;48.580;7.756;2024-01-30T23:47:20;15.98;;;8.32;;
53271;SDS011;39160;48.580;7.756;2024-01-30T23:52:11;11.43;;;7.00;;
53271;SDS011;39160;48.580;7.756;2024-01-30T23:57:01;10.25;;;7.32;;
